Time;durP1;ratioP1;P1;durP2;ratioP2;P2;SDS_P1;SDS_P2;PMS_P1;PMS_P2;Temp;Humidity;BMP_temperature;BMP_pressure;BME280_temperature;BME280_humidity;BME280_pressure;Samples;Min_cycle;Max_cycle;Signal;HPM_P1;HPM_P2
2021/06/05 00:00:40;;;;;;;;;;;;;;;12.84;100.00;101359.16;5072204;28;19924;-70
2021/06/05 00:03:07;;;;;;;;;;;;;;;12.79;100.00;101350.53;5072284;28;19991;-71
2021/06/05 00:05:35;;;;;;;;;;;;;;;12.72;100.00;101351.00;5072129;28;19931;-71
2021/06/05 00:08:02;;;;;;;;;;;;;;;12.69;100.00;101344.94;5072096;28;19932;-71
2021/06/05 00:10:30;;;;;;;;;;;;;;;12.67;100.00;101347.78;5072021;28;19926;-70
2021/06/05 00:12:56;;;;;;;;;;;;;;;12.66;100.00;101354.22;5071847;28;19928;-70
2021/06/05 00:15:25;;;;;;;;;;;;;;;12.66;100.00;101347.91;5072372;28;19931;-70
2021/06/05 00:17:51;;;;;;;;;;;;;;;12.64;100.00;101344.44;5071896;28;19925;-70
2021/06/05 00:20:17;;;;;;;;;;;;;;;12.64;100.00;101342.59;5071905;28;19932;-70
2021/06/05 00:22:43;;;;;;;;;;;;;;;12.63;100.00;101350.88;5071883;28;19972;-70
2021/06/05 00:25:13;;;;;;;;;;;;;;;12.63;100.00;101334.53;5071629;28;19932;-70
2021/06/05 00:27:39;;;;;;;;;;;;;;;12.60;100.00;101340.22;5071453;28;19925;-70
2021/06/05 00:30:07;;;;;;;;;;;;;;;12.59;100.00;101343.91;5071631;28;19924;-70
2021/06/05 00:32:33;;;;;;;;;;;;;;;12.56;100.00;101348.66;5071830;28;19931;-70
2021/06/05 00:34:59;;;;;;;;;;;;;;;12.52;100.00;101347.16;5071419;28;19932;-70
2021/06/05 00:37:25;;;;;;;;;;;;;;;12.52;100.00;101346.28;5071791;28;19924;-71
2021/06/05 00:39:51;;;;;;;;;;;;;;;12.47;100.00;101349.38;5071630;28;19925;-70
2021/06/05 00:42:18;;;;;;;;;;;;;;;12.46;100.00;101344.91;5071372;28;20436;-71
2021/06/05 00:44:44;;;;;;;;;;;;;;;12.44;100.00;101346.91;5053600;28;19975;-70
2021/06/05 00:47:10;;;;;;;;;;;;;;;12.42;100.00;101340.69;5071313;28;19924;-70
2021/06/05 00:49:36;;;;;;;;;;;;;;;12.39;100.00;101335.50;5071647;28;19929;-70
2021/06/05 00:52:05;;;;;;;;;;;;;;;12.42;100.00;101337.13;5053502;28;19931;-70
2021/06/05 00:54:34;;;;;;;;;;;;;;;12.36;100.00;101346.66;5071374;28;19925;-70
2021/06/05 00:57:02;;;;;;;;;;;;;;;12.31;100.00;101338.84;5053592;28;19924;-70
2021/06/05 00:59:33;;;;;;;;;;;;;;;12.28;100.00;101330.03;5036764;28;19959;-70
2021/06/05 01:02:00;;;;;;;;;;;;;;;12.26;100.00;101326.56;5070008;28;19928;-70
2021/06/05 01:04:28;;;;;;;;;;;;;;;12.23;100.00;101333.13;5053074;28;19924;-70
2021/06/05 01:06:56;;;;;;;;;;;;;;;12.21;100.00;101337.81;5071002;28;19928;-70
2021/06/05 01:09:29;;;;;;;;;;;;;;;12.18;100.00;101333.47;5053294;28;20391;-71
2021/06/05 01:12:02;;;;;;;;;;;;;;;12.14;100.00;101334.69;5052920;28;20459;-71
2021/06/05 01:14:41;;;;;;;;;;;;;;;12.13;100.00;101341.16;5036366;28;20375;-70
2021/06/05 01:17:10;;;;;;;;;;;;;;;12.12;100.00;101336.69;5070778;28;19935;-70
2021/06/05 01:19:40;;;;;;;;;;;;;;;12.12;100.00;101342.13;5053534;28;19928;-71
2021/06/05 01:22:18;;;;;;;;;;;;;;;12.08;100.00;101331.59;5052877;28;19932;-70
2021/06/05 01:24:49;;;;;;;;;;;;;;;12.04;100.00;101333.72;5053057;28;19925;-71
2021/06/05 01:27:21;;;;;;;;;;;;;;;12.01;100.00;101331.22;5071090;28;20007;-70
2021/06/05 01:29:51;;;;;;;;;;;;;;;11.94;100.00;101333.50;5052778;28;20019;-71
2021/06/05 01:32:17;;;;;;;;;;;;;;;11.87;100.00;101330.41;5052711;28;19947;-70
2021/06/05 01:34:45;;;;;;;;;;;;;;;11.80;100.00;101326.41;5052625;28;20429;-70
2021/06/05 01:37:16;;;;;;;;;;;;;;;11.74;100.00;101332.31;5052967;28;19925;-72
2021/06/05 01:39:50;;;;;;;;;;;;;;;11.72;100.00;101335.16;5070810;28;19928;-71
2021/06/05 01:42:18;;;;;;;;;;;;;;;11.70;100.00;101347.13;5052833;28;19981;-70
2021/06/05 01:44:49;;;;;;;;;;;;;;;11.69;100.00;101337.25;5052589;28;20323;-70
2021/06/05 01:47:15;;;;;;;;;;;;;;;11.67;100.00;101336.50;5070496;28;19931;-70
2021/06/05 01:49:41;;;;;;;;;;;;;;;11.65;100.00;101333.03;5070842;28;19947;-71
2021/06/05 01:52:09;;;;;;;;;;;;;;;11.64;100.00;101331.31;5070514;28;19947;-70
2021/06/05 01:54:37;;;;;;;;;;;;;;;11.56;100.00;101338.19;5052701;28;19924;-70
2021/06/05 01:57:06;;;;;;;;;;;;;;;11.56;100.00;101332.75;5052638;28;19928;-70
2021/06/05 01:59:58;;;;;;;;;;;;;;;11.53;100.00;101335.72;5052777;28;19974;-71
2021/06/05 02:02:37;;;;;;;;;;;;;;;11.49;100.00;101333.31;5070780;28;19994;-70
2021/06/05 02:05:06;;;;;;;;;;;;;;;11.44;100.00;101330.97;5052275;28;20308;-70
2021/06/05 02:07:32;;;;;;;;;;;;;;;11.41;100.00;101325.75;5056162;28;19951;-70
2021/06/05 02:09:58;;;;;;;;;;;;;;;11.40;100.00;101332.19;5056200;28;19939;-70
2021/06/05 02:12:33;;;;;;;;;;;;;;;11.38;100.00;101335.00;5056729;28;20128;-70
2021/06/05 02:15:12;;;;;;;;;;;;;;;11.36;100.00;101327.97;5074396;28;19947;-71
2021/06/05 02:17:41;;;;;;;;;;;;;;;11.30;100.00;101326.53;5056354;28;19932;-71
2021/06/05 02:20:11;;;;;;;;;;;;;;;11.29;100.00;101319.41;5074339;28;20465;-71
2021/06/05 02:22:42;;;;;;;;;;;;;;;11.23;100.00;101334.28;5074153;28;19925;-71
2021/06/05 02:25:10;;;;;;;;;;;;;;;11.26;100.00;101335.06;5056198;28;19966;-70
2021/06/05 02:27:40;;;;;;;;;;;;;;;11.28;100.00;101335.81;5073885;28;20011;-71
2021/06/05 02:30:18;;;;;;;;;;;;;;;11.23;100.00;101331.56;5056294;28;19999;-70
2021/06/05 02:32:45;;;;;;;;;;;;;;;11.23;100.00;101317.97;5056098;28;19977;-70
2021/06/05 02:35:15;;;;;;;;;;;;;;;11.18;100.00;101317.47;5073413;28;19925;-70
2021/06/05 02:37:52;;;;;;;;;;;;;;;11.11;100.00;101312.63;5056254;28;19928;-70
2021/06/05 02:40:27;;;;;;;;;;;;;;;11.11;100.00;101313.47;5056046;28;19924;-71
2021/06/05 02:42:56;;;;;;;;;;;;;;;11.13;100.00;101316.06;5056126;28;19932;-70
2021/06/05 02:45:25;;;;;;;;;;;;;;;11.13;100.00;101310.63;5039119;28;19924;-71
2021/06/05 02:47:52;;;;;;;;;;;;;;;11.11;100.00;101308.03;5072496;28;19928;-70
2021/06/05 02:50:20;;;;;;;;;;;;;;;11.10;100.00;101302.72;5055948;28;20355;-70
2021/06/05 02:52:46;;;;;;;;;;;;;;;11.06;100.00;101299.34;5073355;28;19959;-71
2021/06/05 02:55:14;;;;;;;;;;;;;;;11.06;100.00;101304.78;5073380;28;19924;-71
2021/06/05 02:57:42;;;;;;;;;;;;;;;11.09;100.00;101307.31;5055509;28;19932;-70
2021/06/05 03:00:09;;;;;;;;;;;;;;;11.15;100.00;101303.25;5073544;28;19951;-70
2021/06/05 03:02:38;;;;;;;;;;;;;;;11.20;100.00;101309.22;5055728;28;19925;-71
2021/06/05 03:05:04;;;;;;;;;;;;;;;11.25;100.00;101308.84;5072880;28;19924;-71
2021/06/05 03:07:31;;;;;;;;;;;;;;;11.31;100.00;101311.13;5055671;28;19925;-71
2021/06/05 03:09:58;;;;;;;;;;;;;;;11.31;100.00;101313.84;5038610;28;19947;-70
2021/06/05 03:12:24;;;;;;;;;;;;;;;11.37;100.00;101314.25;5055374;28;19924;-70
2021/06/05 03:14:52;;;;;;;;;;;;;;;11.42;100.00;101321.19;5055437;28;19924;-70
2021/06/05 03:17:18;;;;;;;;;;;;;;;11.45;100.00;101320.94;5054232;28;19943;-70
2021/06/05 03:19:46;;;;;;;;;;;;;;;11.48;100.00;101320.72;5073052;28;19969;-70
2021/06/05 03:22:12;;;;;;;;;;;;;;;11.50;100.00;101325.03;5072960;28;19928;-70
2021/06/05 03:24:47;;;;;;;;;;;;;;;11.53;100.00;101324.81;5073034;28;19959;-71
2021/06/05 03:27:15;;;;;;;;;;;;;;;11.51;100.00;101317.78;5055136;28;19928;-70
2021/06/05 03:29:42;;;;;;;;;;;;;;;11.47;100.00;101317.13;5073165;28;20455;-70
2021/06/05 03:32:09;;;;;;;;;;;;;;;11.51;100.00;101318.63;5055089;28;19928;-70
2021/06/05 03:34:36;;;;;;;;;;;;;;;11.53;100.00;101308.53;5054905;28;19928;-70
2021/06/05 03:37:06;;;;;;;;;;;;;;;11.56;100.00;101311.00;5055203;28;19932;-71
2021/06/05 03:39:32;;;;;;;;;;;;;;;11.61;100.00;101315.22;5054869;28;20300;-70
2021/06/05 03:42:01;;;;;;;;;;;;;;;11.69;100.00;101310.03;5054991;28;19977;-70
2021/06/05 03:44:27;;;;;;;;;;;;;;;11.73;100.00;101311.53;5054620;28;19982;-70
2021/06/05 03:46:54;;;;;;;;;;;;;;;11.80;100.00;101309.22;5072592;28;19928;-71
2021/06/05 03:49:20;;;;;;;;;;;;;;;11.87;100.00;101303.19;5054856;28;19939;-70
2021/06/05 03:51:46;;;;;;;;;;;;;;;11.95;100.00;101296.34;5054547;28;20407;-70
2021/06/05 03:54:15;;;;;;;;;;;;;;;11.99;100.00;101303.28;5054625;28;20350;-70
2021/06/05 03:56:41;;;;;;;;;;;;;;;12.06;100.00;101299.06;5072664;28;19985;-71
2021/06/05 03:59:08;;;;;;;;;;;;;;;12.17;100.00;101296.38;5072231;28;19928;-70
2021/06/05 04:01:34;;;;;;;;;;;;;;;12.31;100.00;101297.16;5072311;28;19931;-70
2021/06/05 04:03:59;;;;;;;;;;;;;;;12.47;100.00;101294.91;5071906;28;20299;-70
2021/06/05 04:06:26;;;;;;;;;;;;;;;12.69;100.00;101291.34;5072354;28;19924;-71
2021/06/05 04:08:53;;;;;;;;;;;;;;;12.89;100.00;101286.97;5072033;28;19924;-71
2021/06/05 04:11:20;;;;;;;;;;;;;;;13.07;100.00;101270.94;5072082;28;19932;-71
2021/06/05 04:13:46;;;;;;;;;;;;;;;13.24;100.00;101265.94;5072510;28;20054;-67
2021/06/05 04:16:12;;;;;;;;;;;;;;;13.40;100.00;101268.25;5071417;28;19924;-67
2021/06/05 04:18:39;;;;;;;;;;;;;;;13.54;100.00;101267.97;5051239;28;19940;-67
2021/06/05 04:21:06;;;;;;;;;;;;;;;13.69;100.00;101268.50;5033663;28;19936;-67
2021/06/05 04:23:32;;;;;;;;;;;;;;;13.83;100.00;101266.44;5051709;28;19924;-67
2021/06/05 04:25:58;;;;;;;;;;;;;;;14.01;100.00;101266.72;5051592;28;19929;-67
2021/06/05 04:28:26;;;;;;;;;;;;;;;14.18;100.00;101268.00;5054238;28;19933;-68
2021/06/05 04:30:52;;;;;;;;;;;;;;;14.36;100.00;101270.94;5081964;28;19928;-67
2021/06/05 04:33:19;;;;;;;;;;;;;;;14.52;100.00;101257.66;5071058;28;19929;-68
2021/06/05 04:35:45;;;;;;;;;;;;;;;14.69;100.00;101260.78;5074009;28;19928;-68
2021/06/05 04:38:14;;;;;;;;;;;;;;;14.90;100.00;101258.81;5057207;28;19924;-75
2021/06/05 04:40:41;;;;;;;;;;;;;;;15.12;100.00;101261.44;5071574;28;20384;-75
2021/06/05 04:43:08;;;;;;;;;;;;;;;15.33;100.00;101270.38;5071679;28;20493;-75
2021/06/05 04:45:35;;;;;;;;;;;;;;;15.54;100.00;101272.16;5075095;28;19924;-75
2021/06/05 04:48:01;;;;;;;;;;;;;;;15.76;100.00;101276.44;5077025;28;20038;-76
2021/06/05 04:50:28;;;;;;;;;;;;;;;15.95;100.00;101280.19;5079448;28;19982;-76
2021/06/05 04:52:54;;;;;;;;;;;;;;;16.06;100.00;101277.28;5091463;28;20375;-75
2021/06/05 04:55:20;;;;;;;;;;;;;;;16.15;100.00;101275.53;5071598;28;19955;-76
2021/06/05 04:57:46;;;;;;;;;;;;;;;16.24;100.00;101270.03;5085893;28;19947;-77
2021/06/05 05:00:15;;;;;;;;;;;;;;;16.37;100.00;101277.09;5090925;28;19936;-67
2021/06/05 05:02:42;;;;;;;;;;;;;;;16.49;100.00;101280.47;5091145;28;19928;-67
2021/06/05 05:05:08;;;;;;;;;;;;;;;16.55;100.00;101269.81;5070593;28;19936;-66
2021/06/05 05:07:34;;;;;;;;;;;;;;;16.61;100.00;101271.06;5052888;28;19925;-67
2021/06/05 05:10:00;;;;;;;;;;;;;;;16.72;100.00;101273.59;5070921;28;19940;-67
2021/06/05 05:12:26;;;;;;;;;;;;;;;16.85;100.00;101261.41;5070693;28;20371;-67
2021/06/05 05:14:54;;;;;;;;;;;;;;;16.97;100.00;101270.31;5070198;28;20014;-67
2021/06/05 05:17:20;;;;;;;;;;;;;;;17.12;100.00;101263.31;5052549;28;19955;-67
2021/06/05 05:19:47;;;;;;;;;;;;;;;17.30;100.00;101255.09;5069777;28;20312;-67
2021/06/05 05:22:13;;;;;;;;;;;;;;;17.54;100.00;101261.84;5071107;28;19946;-67
2021/06/05 05:24:39;;;;;;;;;;;;;;;17.76;100.00;101259.63;5071187;28;20268;-67
2021/06/05 05:27:05;;;;;;;;;;;;;;;17.97;100.00;101262.06;5070670;28;19982;-67
2021/06/05 05:29:31;;;;;;;;;;;;;;;18.20;100.00;101262.41;5070840;28;20025;-67
2021/06/05 05:31:57;;;;;;;;;;;;;;;18.42;100.00;101263.72;5052618;28;19928;-67
2021/06/05 05:34:23;;;;;;;;;;;;;;;18.66;100.00;101264.88;5074746;28;19925;-66
2021/06/05 05:36:50;;;;;;;;;;;;;;;18.82;100.00;101261.34;5065784;28;19971;-67
2021/06/05 05:39:17;;;;;;;;;;;;;;;19.03;100.00;101260.94;5090785;28;19956;-67
2021/06/05 05:41:44;;;;;;;;;;;;;;;19.19;100.00;101260.13;5088656;28;19931;-67
2021/06/05 05:44:10;;;;;;;;;;;;;;;19.40;100.00;101265.13;5090446;28;20533;-68
2021/06/05 05:46:36;;;;;;;;;;;;;;;19.58;100.00;101265.81;5072931;28;19924;-67
2021/06/05 05:49:03;;;;;;;;;;;;;;;19.82;100.00;101268.81;5070747;28;19925;-67
2021/06/05 05:51:29;;;;;;;;;;;;;;;20.08;100.00;101268.59;5086177;28;20025;-67
2021/06/05 05:53:56;;;;;;;;;;;;;;;20.30;100.00;101267.03;5070974;28;19928;-65
2021/06/05 05:56:24;;;;;;;;;;;;;;;20.50;100.00;101264.72;5070414;28;19925;-66
2021/06/05 05:58:51;;;;;;;;;;;;;;;20.85;100.00;101270.81;5077563;28;19928;-66
2021/06/05 06:01:19;;;;;;;;;;;;;;;21.27;100.00;101270.59;5090646;28;19924;-66
2021/06/05 06:03:45;;;;;;;;;;;;;;;21.61;100.00;101261.94;5083639;28;19925;-68
2021/06/05 06:06:11;;;;;;;;;;;;;;;21.92;100.00;101265.66;5070764;28;19924;-68
2021/06/05 06:08:37;;;;;;;;;;;;;;;22.38;100.00;101271.97;5080043;28;20265;-68
2021/06/05 06:11:05;;;;;;;;;;;;;;;22.51;100.00;101268.53;5071345;28;20376;-69
2021/06/05 06:13:31;;;;;;;;;;;;;;;23.00;100.00;101267.06;5075232;28;19924;-69
2021/06/05 06:15:57;;;;;;;;;;;;;;;23.28;95.33;101265.50;5072366;28;19931;-69
2021/06/05 06:18:22;;;;;;;;;;;;;;;23.62;97.07;101273.09;5079651;28;20031;-68
2021/06/05 06:20:50;;;;;;;;;;;;;;;23.87;90.30;101262.44;5070167;28;19929;-69
2021/06/05 06:23:17;;;;;;;;;;;;;;;24.01;86.92;101265.38;5083436;28;19928;-69
2021/06/05 06:25:43;;;;;;;;;;;;;;;24.18;84.71;101268.72;5072290;28;19966;-69
2021/06/05 06:28:12;;;;;;;;;;;;;;;24.46;84.60;101274.22;5078024;28;19924;-77
2021/06/05 06:30:39;;;;;;;;;;;;;;;24.73;82.24;101268.88;5052419;28;19935;-77
2021/06/05 06:33:07;;;;;;;;;;;;;;;24.92;76.08;101275.59;5069910;28;19925;-73
2021/06/05 06:35:33;;;;;;;;;;;;;;;25.13;72.23;101273.75;5070036;28;19978;-73
2021/06/05 06:38:00;;;;;;;;;;;;;;;25.55;74.83;101278.16;5090528;28;19924;-74
2021/06/05 06:40:28;;;;;;;;;;;;;;;25.66;68.00;101279.47;5072612;28;20430;-73
2021/06/05 06:42:54;;;;;;;;;;;;;;;25.66;67.45;101278.63;5070005;28;19924;-73
2021/06/05 06:45:21;;;;;;;;;;;;;;;25.66;66.77;101273.06;5085683;28;20307;-74
2021/06/05 06:47:47;;;;;;;;;;;;;;;25.72;65.55;101277.75;5088727;28;20346;-73
2021/06/05 06:50:13;;;;;;;;;;;;;;;25.75;68.73;101280.13;5072250;28;19925;-73
2021/06/05 06:52:39;;;;;;;;;;;;;;;26.18;63.82;101267.75;5073214;28;19982;-73
2021/06/05 06:55:06;;;;;;;;;;;;;;;26.46;63.88;101273.06;5092152;28;19924;-73
2021/06/05 06:57:32;;;;;;;;;;;;;;;26.79;57.79;101269.38;5049425;28;20345;-72
2021/06/05 06:59:58;;;;;;;;;;;;;;;27.04;57.06;101260.25;5093956;28;19928;-72
2021/06/05 07:02:25;;;;;;;;;;;;;;;26.98;55.40;101261.13;5080013;28;19978;-72
2021/06/05 07:04:51;;;;;;;;;;;;;;;26.80;56.42;101267.41;5076825;28;19925;-72
2021/06/05 07:07:17;;;;;;;;;;;;;;;27.24;56.70;101265.72;5073511;28;19998;-72
2021/06/05 07:09:43;;;;;;;;;;;;;;;27.30;53.34;101263.97;5073264;28;19978;-72
2021/06/05 07:12:09;;;;;;;;;;;;;;;27.64;53.50;101267.44;5055455;28;19924;-72
2021/06/05 07:14:35;;;;;;;;;;;;;;;27.75;50.44;101266.69;5073219;28;19971;-72
2021/06/05 07:17:03;;;;;;;;;;;;;;;27.54;49.25;101262.38;5073042;28;19924;-73
2021/06/05 07:19:30;;;;;;;;;;;;;;;27.62;50.67;101270.47;5073107;28;20404;-72
2021/06/05 07:21:56;;;;;;;;;;;;;;;27.75;49.01;101266.69;5073123;28;20326;-73
2021/06/05 07:24:22;;;;;;;;;;;;;;;27.81;51.18;101268.59;5054962;28;20019;-73
2021/06/05 07:26:47;;;;;;;;;;;;;;;27.86;48.10;101271.56;5072984;28;19935;-72
2021/06/05 07:29:14;;;;;;;;;;;;;;;27.45;47.13;101272.91;5072439;28;19951;-73
2021/06/05 07:31:41;;;;;;;;;;;;;;;27.54;47.76;101271.56;5072142;28;19932;-73
2021/06/05 07:34:07;;;;;;;;;;;;;;;27.40;49.30;101276.34;5072376;28;19924;-73
2021/06/05 07:36:37;;;;;;;;;;;;;;;27.96;48.87;101276.63;5055081;28;20004;-73
2021/06/05 07:39:04;;;;;;;;;;;;;;;28.18;47.80;101274.31;5072843;28;19932;-73
2021/06/05 07:41:30;;;;;;;;;;;;;;;28.41;46.56;101272.81;5072896;28;20340;-73
2021/06/05 07:43:56;;;;;;;;;;;;;;;28.69;44.88;101271.47;5072538;28;19925;-73
2021/06/05 07:46:22;;;;;;;;;;;;;;;28.94;43.47;101273.31;5072564;28;19924;-73
2021/06/05 07:48:48;;;;;;;;;;;;;;;29.56;45.52;101273.13;5072778;28;19924;-73
2021/06/05 07:51:14;;;;;;;;;;;;;;;29.57;41.30;101266.44;5072468;28;19932;-73
2021/06/05 07:53:43;;;;;;;;;;;;;;;29.54;41.54;101267.78;5072154;28;19925;-73
2021/06/05 07:56:09;;;;;;;;;;;;;;;29.60;41.86;101267.88;5054192;28;19928;-73
2021/06/05 07:58:35;;;;;;;;;;;;;;;29.67;41.55;101272.28;5071931;28;20403;-73
2021/06/05 08:01:00;;;;;;;;;;;;;;;29.27;40.18;101263.66;5072655;28;20356;-73
2021/06/05 08:03:26;;;;;;;;;;;;;;;29.42;42.14;101264.06;5053669;28;19924;-73
2021/06/05 08:05:52;;;;;;;;;;;;;;;29.92;40.84;101262.03;5072459;28;19982;-73
2021/06/05 08:08:18;;;;;;;;;;;;;;;30.23;39.10;101258.06;5072307;28;19946;-73
2021/06/05 08:10:45;;;;;;;;;;;;;;;30.21;39.83;101251.81;5071078;28;19924;-73
2021/06/05 08:13:11;;;;;;;;;;;;;;;29.95;40.22;101241.97;5070467;28;19974;-73
2021/06/05 08:15:39;;;;;;;;;;;;;;;30.08;41.09;101250.16;5069870;28;19925;-73
2021/06/05 08:18:05;;;;;;;;;;;;;;;30.53;39.54;101251.47;5070077;28;19947;-73
2021/06/05 08:20:33;;;;;;;;;;;;;;;30.48;37.64;101246.63;5051868;28;21147;-73
2021/06/05 08:22:59;;;;;;;;;;;;;;;30.32;38.65;101250.13;5070286;28;19924;-73
2021/06/05 08:25:26;;;;;;;;;;;;;;;29.00;38.52;101261.19;5070830;28;19936;-73
2021/06/05 08:27:53;;;;;;;;;;;;;;;29.01;38.48;101243.31;5071675;28;20057;-73
2021/06/05 08:30:21;;;;;;;;;;;;;;;29.10;39.85;101252.25;5071942;28;19925;-73
2021/06/05 08:32:47;;;;;;;;;;;;;;;29.61;40.18;101253.69;5071136;28;20393;-73
2021/06/05 08:35:13;;;;;;;;;;;;;;;29.91;40.70;101241.59;5070932;28;19977;-73
2021/06/05 08:37:38;;;;;;;;;;;;;;;30.26;37.80;101237.13;5071795;28;19928;-73
2021/06/05 08:40:05;;;;;;;;;;;;;;;30.08;36.77;101241.75;5071220;28;19971;-73
2021/06/05 08:42:34;;;;;;;;;;;;;;;30.04;37.60;101240.53;5071459;28;19987;-73
2021/06/05 08:45:03;;;;;;;;;;;;;;;29.56;37.18;101234.81;5071156;28;19932;-73
2021/06/05 08:47:32;;;;;;;;;;;;;;;30.08;37.60;101238.94;5071323;28;19929;-74
2021/06/05 08:50:01;;;;;;;;;;;;;;;30.85;39.18;101228.63;5053500;28;19928;-73
2021/06/05 08:52:31;;;;;;;;;;;;;;;30.87;37.03;101232.03;5071131;28;19963;-73
2021/06/05 08:54:58;;;;;;;;;;;;;;;31.50;37.01;101238.59;5071142;28;20316;-73
2021/06/05 08:57:34;;;;;;;;;;;;;;;31.63;34.59;101233.81;5071188;28;20360;-74
2021/06/05 09:00:06;;;;;;;;;;;;;;;31.27;34.51;101233.13;5053385;28;19925;-73
2021/06/05 09:02:32;;;;;;;;;;;;;;;31.51;37.61;101231.91;5071083;28;20046;-72
2021/06/05 09:04:58;;;;;;;;;;;;;;;31.65;34.07;101234.41;5069848;28;20354;-73
2021/06/05 09:07:24;;;;;;;;;;;;;;;31.33;33.69;101238.56;5070699;28;19982;-72
2021/06/05 09:09:51;;;;;;;;;;;;;;;31.35;36.48;101241.16;5070614;28;19935;-72
2021/06/05 09:12:16;;;;;;;;;;;;;;;31.54;34.31;101239.81;5071038;28;19928;-72
2021/06/05 09:14:43;;;;;;;;;;;;;;;31.78;35.42;101230.44;5070948;28;19986;-72
2021/06/05 09:17:18;;;;;;;;;;;;;;;31.82;33.95;101240.03;5051999;28;19928;-72
2021/06/05 09:19:58;;;;;;;;;;;;;;;31.78;33.87;101231.28;5071183;28;19929;-73
2021/06/05 09:22:30;;;;;;;;;;;;;;;31.98;34.25;101227.09;5070683;28;20062;-72
2021/06/05 09:24:55;;;;;;;;;;;;;;;32.33;33.32;101234.41;5070946;28;20288;-72
2021/06/05 09:27:22;;;;;;;;;;;;;;;31.84;33.58;101238.69;5070912;28;19935;-72
2021/06/05 09:29:53;;;;;;;;;;;;;;;32.20;33.56;101233.66;5071004;28;19928;-72
2021/06/05 09:32:22;;;;;;;;;;;;;;;32.58;32.22;101239.53;5070867;28;19924;-72
2021/06/05 09:34:49;;;;;;;;;;;;;;;32.63;32.39;101235.91;5052401;28;20376;-72
2021/06/05 09:37:30;;;;;;;;;;;;;;;32.65;31.59;101233.72;5071051;28;19932;-72
2021/06/05 09:40:01;;;;;;;;;;;;;;;32.10;32.09;101233.47;5070799;28;19931;-72
2021/06/05 09:42:28;;;;;;;;;;;;;;;32.31;32.23;101234.66;5070820;28;20011;-72
2021/06/05 09:44:54;;;;;;;;;;;;;;;32.70;31.73;101230.97;5070722;28;19976;-72
2021/06/05 09:47:24;;;;;;;;;;;;;;;32.65;31.98;101230.91;5070452;28;19956;-72
2021/06/05 09:49:53;;;;;;;;;;;;;;;32.44;31.23;101229.78;5070756;28;20185;-72
2021/06/05 09:52:29;;;;;;;;;;;;;;;32.59;32.51;101230.00;5070272;28;20505;-73
2021/06/05 09:54:56;;;;;;;;;;;;;;;32.47;32.45;101232.06;5052364;28;19936;-72
2021/06/05 09:57:27;;;;;;;;;;;;;;;32.65;31.58;101228.09;5070593;28;19931;-72
2021/06/05 10:00:01;;;;;;;;;;;;;;;32.68;32.39;101227.56;5052323;28;19925;-72
2021/06/05 10:02:40;;;;;;;;;;;;;;;32.82;33.05;101226.09;5070517;28;19924;-72
2021/06/05 10:05:09;;;;;;;;;;;;;;;32.87;32.48;101223.34;5069920;28;19994;-72
2021/06/05 10:07:36;;;;;;;;;;;;;;;33.25;31.51;101233.91;5070660;28;19978;-72
2021/06/05 10:10:05;;;;;;;;;;;;;;;33.17;31.20;101230.44;5070092;28;20417;-72
2021/06/05 10:12:33;;;;;;;;;;;;;;;33.16;31.42;101227.88;5070181;28;19978;-72
2021/06/05 10:15:00;;;;;;;;;;;;;;;32.79;30.36;101223.81;5069947;28;19928;-72
2021/06/05 10:17:33;;;;;;;;;;;;;;;32.66;31.86;101227.84;5070001;28;20303;-73
2021/06/05 10:20:05;;;;;;;;;;;;;;;32.58;31.88;101222.66;5052680;28;19935;-72
2021/06/05 10:22:31;;;;;;;;;;;;;;;32.75;32.23;101219.84;5052148;28;19925;-72
2021/06/05 10:24:59;;;;;;;;;;;;;;;33.01;31.89;101217.31;5052163;28;19931;-72
2021/06/05 10:27:27;;;;;;;;;;;;;;;33.03;30.30;101224.38;5053876;28;20330;-72
2021/06/05 10:29:54;;;;;;;;;;;;;;;32.93;30.82;101215.81;5074254;28;19924;-72
2021/06/05 10:32:22;;;;;;;;;;;;;;;33.19;31.02;101216.97;5074031;28;20428;-72
2021/06/05 10:34:50;;;;;;;;;;;;;;;32.26;30.10;101206.50;5055615;28;19959;-72
2021/06/05 10:37:20;;;;;;;;;;;;;;;31.70;30.39;101203.66;5073953;28;19978;-71
2021/06/05 10:39:46;;;;;;;;;;;;;;;32.42;32.68;101209.50;5074060;28;19931;-71
2021/06/05 10:42:15;;;;;;;;;;;;;;;32.51;30.48;101207.94;5074085;28;19956;-72
2021/06/05 10:44:41;;;;;;;;;;;;;;;32.32;29.81;101204.59;5074000;28;20447;-71
2021/06/05 10:47:09;;;;;;;;;;;;;;;32.36;29.95;101200.16;5072141;28;19932;-72
2021/06/05 10:49:40;;;;;;;;;;;;;;;31.39;30.98;101200.28;5074101;28;19924;-71
2021/06/05 10:52:07;;;;;;;;;;;;;;;30.99;32.18;101190.81;5073304;28;19936;-72
2021/06/05 10:54:37;;;;;;;;;;;;;;;31.05;33.62;101188.97;5073445;28;19931;-71
2021/06/05 10:57:05;;;;;;;;;;;;;;;31.53;33.97;101195.19;5055690;28;19924;-72
2021/06/05 10:59:40;;;;;;;;;;;;;;;31.73;32.82;101183.47;5073727;28;19924;-71
2021/06/05 11:02:06;;;;;;;;;;;;;;;32.24;31.77;101191.03;5072344;28;19929;-72
2021/06/05 11:04:40;;;;;;;;;;;;;;;32.63;32.06;101185.34;5073130;28;19924;-72
2021/06/05 11:07:14;;;;;;;;;;;;;;;32.46;31.13;101189.09;5055866;28;20449;-71
2021/06/05 11:09:47;;;;;;;;;;;;;;;32.93;30.85;101181.25;5073281;28;19924;-72
2021/06/05 11:12:28;;;;;;;;;;;;;;;33.45;31.47;101179.84;5073226;28;19928;-72
2021/06/05 11:14:55;;;;;;;;;;;;;;;32.98;30.51;101184.09;5071790;28;19978;-72
2021/06/05 11:17:31;;;;;;;;;;;;;;;32.57;30.99;101178.00;5073217;28;19932;-71
2021/06/05 11:20:15;;;;;;;;;;;;;;;32.61;31.41;101176.34;5073461;28;20372;-72
2021/06/05 11:23:02;;;;;;;;;;;;;;;32.69;31.04;101173.91;5072969;28;19956;-71
2021/06/05 11:25:33;;;;;;;;;;;;;;;31.99;31.28;101169.84;5073156;28;19925;-71
2021/06/05 11:28:18;;;;;;;;;;;;;;;32.09;30.94;101161.59;5072819;28;19929;-72
2021/06/05 11:30:44;;;;;;;;;;;;;;;32.07;30.95;101166.63;5072823;28;19966;-72
2021/06/05 11:33:10;;;;;;;;;;;;;;;32.04;31.63;101169.91;5072464;28;20366;-72
2021/06/05 11:35:40;;;;;;;;;;;;;;;32.03;31.06;101159.81;5072827;28;19925;-72
2021/06/05 11:38:06;;;;;;;;;;;;;;;32.19;30.09;101161.75;5072433;28;19924;-72
2021/06/05 11:40:53;;;;;;;;;;;;;;;32.37;29.65;101176.59;5072168;28;19955;-72
2021/06/05 11:43:20;;;;;;;;;;;;;;;32.84;29.62;101170.47;5072554;28;20303;-71
2021/06/05 11:45:55;;;;;;;;;;;;;;;33.07;29.33;101162.84;5072207;28;19925;-72
2021/06/05 11:48:37;;;;;;;;;;;;;;;33.11;29.43;101160.34;5070960;28;19924;-71
2021/06/05 11:51:16;;;;;;;;;;;;;;;33.31;28.71;101148.47;5072650;28;20331;-72
2021/06/05 11:53:45;;;;;;;;;;;;;;;33.16;27.40;101149.16;5072592;28;20311;-72
2021/06/05 11:56:12;;;;;;;;;;;;;;;33.23;28.67;101144.16;5072569;28;20015;-72
2021/06/05 11:58:38;;;;;;;;;;;;;;;32.96;28.62;101141.38;5072643;28;19928;-71
2021/06/05 12:01:12;;;;;;;;;;;;;;;32.71;28.35;101145.59;5072647;28;19924;-72
2021/06/05 12:03:47;;;;;;;;;;;;;;;33.00;28.81;101139.72;5054233;28;20015;-72
2021/06/05 12:06:16;;;;;;;;;;;;;;;32.68;28.42;101138.50;5072300;28;20350;-72
2021/06/05 12:08:42;;;;;;;;;;;;;;;32.74;27.76;101125.41;5072406;28;20430;-71
2021/06/05 12:11:21;;;;;;;;;;;;;;;32.68;27.87;101129.22;5071923;28;19925;-72
2021/06/05 12:13:47;;;;;;;;;;;;;;;32.58;28.86;101120.66;5072071;28;19924;-72
2021/06/05 12:16:15;;;;;;;;;;;;;;;32.69;28.79;101128.97;5072170;28;19932;-72
2021/06/05 12:18:41;;;;;;;;;;;;;;;32.73;29.38;101115.28;5072466;28;19925;-72
2021/06/05 12:21:20;;;;;;;;;;;;;;;33.17;28.86;101115.13;5072159;28;20017;-71
2021/06/05 12:23:46;;;;;;;;;;;;;;;33.18;28.40;101108.41;5071871;28;20422;-73
2021/06/05 12:26:17;;;;;;;;;;;;;;;32.64;28.87;101116.81;5071940;28;20013;-72
2021/06/05 12:28:46;;;;;;;;;;;;;;;33.21;29.87;101113.50;5071986;28;19964;-72
2021/06/05 12:31:14;;;;;;;;;;;;;;;33.94;29.50;101103.69;5046579;28;19940;-72
2021/06/05 12:33:40;;;;;;;;;;;;;;;34.28;28.01;101099.63;5089152;28;19931;-71
2021/06/05 12:36:20;;;;;;;;;;;;;;;34.65;27.00;101099.50;5076843;28;20019;-71